sensor_id;sensor_type;location;lat;lon;timestamp;temperature;humidity
7496;DHT22;3789;47.064;15.482;2023-02-28T00:01:23;-1.50;99.90
7496;DHT22;3789;47.064;15.482;2023-02-28T00:03:52;-1.40;99.90
7496;DHT22;3789;47.064;15.482;2023-02-28T00:06:19;-1.30;99.90
7496;DHT22;3789;47.064;15.482;2023-02-28T00:08:48;-1.20;99.90
7496;DHT22;3789;47.064;15.482;2023-02-28T00:11:16;-1.10;99.90
7496;DHT22;3789;47.064;15.482;2023-02-28T00:13:46;-1.10;99.90
7496;DHT22;3789;47.064;15.482;2023-02-28T00:16:19;-1.00;99.90
7496;DHT22;3789;47.064;15.482;2023-02-28T00:18:48;-1.00;99.90
7496;DHT22;3789;47.064;15.482;2023-02-28T00:21:16;-1.00;99.90
7496;DHT22;3789;47.064;15.482;2023-02-28T00:23:44;-1.00;99.90
7496;DHT22;3789;47.064;15.482;2023-02-28T00:26:11;-1.00;99.90
7496;DHT22;3789;47.064;15.482;2023-02-28T00:28:39;-1.00;99.90
7496;DHT22;3789;47.064;15.482;2023-02-28T00:31:06;-0.90;99.90
7496;DHT22;3789;47.064;15.482;2023-02-28T00:33:34;-0.80;99.90
7496;DHT22;3789;47.064;15.482;2023-02-28T00:36:05;-0.80;99.90
7496;DHT22;3789;47.064;15.482;2023-02-28T00:38:33;-0.80;99.90
7496;DHT22;3789;47.064;15.482;2023-02-28T00:41:00;-0.80;99.90
7496;DHT22;3789;47.064;15.482;2023-02-28T00:43:36;-0.80;99.90
7496;DHT22;3789;47.064;15.482;2023-02-28T00:46:04;-0.80;99.90
7496;DHT22;3789;47.064;15.482;2023-02-28T00:48:32;-0.70;99.90
7496;DHT22;3789;47.064;15.482;2023-02-28T00:51:00;-0.60;99.90
7496;DHT22;3789;47.064;15.482;2023-02-28T00:53:28;-0.60;99.90
7496;DHT22;3789;47.064;15.482;2023-02-28T00:55:56;-0.50;99.90
7496;DHT22;3789;47.064;15.482;2023-02-28T00:58:24;-0.50;99.90
7496;DHT22;3789;47.064;15.482;2023-02-28T01:00:51;-0.50;99.90
7496;DHT22;3789;47.064;15.482;2023-02-28T01:03:20;-0.50;99.90
7496;DHT22;3789;47.064;15.482;2023-02-28T01:09:20;-0.40;99.90
7496;DHT22;3789;47.064;15.482;2023-02-28T01:11:47;-0.50;99.90
7496;DHT22;3789;47.064;15.482;2023-02-28T01:14:16;-0.50;99.90
7496;DHT22;3789;47.064;15.482;2023-02-28T01:16:44;-0.60;99.90
7496;DHT22;3789;47.064;15.482;2023-02-28T01:19:11;-0.50;99.90
7496;DHT22;3789;47.064;15.482;2023-02-28T01:21:39;-0.50;99.90
7496;DHT22;3789;47.064;15.482;2023-02-28T01:24:06;-0.50;99.90
7496;DHT22;3789;47.064;15.482;2023-02-28T01:26:34;-0.50;99.90
7496;DHT22;3789;47.064;15.482;2023-02-28T01:29:01;-0.50;99.90
7496;DHT22;3789;47.064;15.482;2023-02-28T01:31:28;-0.50;99.90
7496;DHT22;3789;47.064;15.482;2023-02-28T01:33:56;-0.50;99.90
7496;DHT22;3789;47.064;15.482;2023-02-28T01:36:24;-0.50;99.90
7496;DHT22;3789;47.064;15.482;2023-02-28T01:38:52;-0.50;99.90
7496;DHT22;3789;47.064;15.482;2023-02-28T01:41:25;-0.50;99.90
7496;DHT22;3789;47.064;15.482;2023-02-28T01:44:01;-0.50;99.90
7496;DHT22;3789;47.064;15.482;2023-02-28T01:46:34;-0.60;99.90
7496;DHT22;3789;47.064;15.482;2023-02-28T01:49:12;-0.60;99.90
7496;DHT22;3789;47.064;15.482;2023-02-28T01:51:49;-0.60;99.90
7496;DHT22;3789;47.064;15.482;2023-02-28T01:54:30;-0.60;99.90
7496;DHT22;3789;47.064;15.482;2023-02-28T01:57:09;-0.50;99.90
7496;DHT22;3789;47.064;15.482;2023-02-28T01:59:42;-0.50;99.90
7496;DHT22;3789;47.064;15.482;2023-02-28T02:02:21;-0.40;99.90
7496;DHT22;3789;47.064;15.482;2023-02-28T02:05:06;-0.30;99.90
7496;DHT22;3789;47.064;15.482;2023-02-28T02:07:37;-0.20;99.90
7496;DHT22;3789;47.064;15.482;2023-02-28T02:10:13;-0.20;99.90
7496;DHT22;3789;47.064;15.482;2023-02-28T02:31:29;-0.10;99.90
7496;DHT22;3789;47.064;15.482;2023-02-28T02:36:25;-0.30;99.90
7496;DHT22;3789;47.064;15.482;2023-02-28T02:42:16;-0.40;99.90
7496;DHT22;3789;47.064;15.482;2023-02-28T02:45:43;-0.30;99.90
7496;DHT22;3789;47.064;15.482;2023-02-28T02:47:50;-0.40;99.90
7496;DHT22;3789;47.064;15.482;2023-02-28T02:50:24;-0.40;99.90
7496;DHT22;3789;47.064;15.482;2023-02-28T02:53:13;-0.40;99.90
7496;DHT22;3789;47.064;15.482;2023-02-28T02:55:52;-0.30;99.90
7496;DHT22;3789;47.064;15.482;2023-02-28T02:58:40;-0.30;99.90
7496;DHT22;3789;47.064;15.482;2023-02-28T03:01:22;-0.30;99.90
7496;DHT22;3789;47.064;15.482;2023-02-28T03:03:59;-0.30;99.90
7496;DHT22;3789;47.064;15.482;2023-02-28T03:06:28;-1.30;99.90
7496;DHT22;3789;47.064;15.482;2023-02-28T03:09:23;-2.60;99.90
7496;DHT22;3789;47.064;15.482;2023-02-28T03:12:11;-4.10;99.90
7496;DHT22;3789;47.064;15.482;2023-02-28T03:15:06;-5.10;99.90
7496;DHT22;3789;47.064;15.482;2023-02-28T03:18:00;-5.70;99.90
7496;DHT22;3789;47.064;15.482;2023-02-28T03:20:39;-6.10;99.90
7496;DHT22;3789;47.064;15.482;2023-02-28T03:23:27;-6.40;99.90
7496;DHT22;3789;47.064;15.482;2023-02-28T03:26:05;-6.70;99.90
7496;DHT22;3789;47.064;15.482;2023-02-28T03:31:16;-7.00;99.90
7496;DHT22;3789;47.064;15.482;2023-02-28T03:34:01;-7.10;99.90
7496;DHT22;3789;47.064;15.482;2023-02-28T03:39:36;-7.30;99.90
7496;DHT22;3789;47.064;15.482;2023-02-28T03:42:18;-7.30;99.90
7496;DHT22;3789;47.064;15.482;2023-02-28T03:44:54;-7.40;99.90
7496;DHT22;3789;47.064;15.482;2023-02-28T03:53:14;-7.50;99.90
7496;DHT22;3789;47.064;15.482;2023-02-28T03:55:49;-7.50;99.90
7496;DHT22;3789;47.064;15.482;2023-02-28T03:58:43;-7.50;99.90
7496;DHT22;3789;47.064;15.482;2023-02-28T04:01:28;-7.60;99.90
7496;DHT22;3789;47.064;15.482;2023-02-28T04:04:11;-7.60;99.90
7496;DHT22;3789;47.064;15.482;2023-02-28T04:06:45;-7.60;99.90
7496;DHT22;3789;47.064;15.482;2023-02-28T04:09:13;-7.60;99.90
7496;DHT22;3789;47.064;15.482;2023-02-28T04:11:51;-7.60;99.90
7496;DHT22;3789;47.064;15.482;2023-02-28T04:14:21;-7.60;99.90
7496;DHT22;3789;47.064;15.482;2023-02-28T04:16:49;-7.60;99.90
7496;DHT22;3789;47.064;15.482;2023-02-28T04:19:26;-7.60;99.90
7496;DHT22;3789;47.064;15.482;2023-02-28T04:21:59;-7.50;99.90
7496;DHT22;3789;47.064;15.482;2023-02-28T04:24:39;-6.90;99.90
7496;DHT22;3789;47.064;15.482;2023-02-28T04:27:10;-6.40;99.90
7496;DHT22;3789;47.064;15.482;2023-02-28T04:29:38;-6.20;99.90
7496;DHT22;3789;47.064;15.482;2023-02-28T04:32:05;-6.00;99.90
7496;DHT22;3789;47.064;15.482;2023-02-28T04:34:33;-6.10;99.90
7496;DHT22;3789;47.064;15.482;2023-02-28T04:37:00;-6.20;99.90
7496;DHT22;3789;47.064;15.482;2023-02-28T04:39:40;-6.40;99.90
7496;DHT22;3789;47.064;15.482;2023-02-28T04:42:07;-6.40;99.90
7496;DHT22;3789;47.064;15.482;2023-02-28T04:44:34;-6.50;99.90
7496;DHT22;3789;47.064;15.482;2023-02-28T04:47:07;-6.70;99.90
7496;DHT22;3789;47.064;15.482;2023-02-28T04:49:35;-6.90;99.90
7496;DHT22;3789;47.064;15.482;2023-02-28T04:52:02;-7.00;99.90
7496;DHT22;3789;47.064;15.482;2023-02-28T04:54:42;-6.60;99.90
7496;DHT22;3789;47.064;15.482;2023-02-28T04:57:16;-6.50;99.90
7496;DHT22;3789;47.064;15.482;2023-02-28T04:59:52;-6.20;99.90
7496;DHT22;3789;47.064;15.482;2023-02-28T05:02:20;-5.50;99.90
7496;DHT22;3789;47.064;15.482;2023-02-28T05:04:47;-5.00;99.90
7496;DHT22;3789;47.064;15.482;2023-02-28T05:07:18;-5.60;99.90
7496;DHT22;3789;47.064;15.482;2023-02-28T05:09:49;-6.00;99.90
7496;DHT22;3789;47.064;15.482;2023-02-28T05:12:25;-5.90;99.90
7496;DHT22;3789;47.064;15.482;2023-02-28T05:14:52;-4.60;99.90
7496;DHT22;3789;47.064;15.482;2023-02-28T05:17:25;-4.30;99.90
7496;DHT22;3789;47.064;15.482;2023-02-28T05:20:18;-4.70;99.90
7496;DHT22;3789;47.064;15.482;2023-02-28T05:22:55;-5.70;99.90
7496;DHT22;3789;47.064;15.482;2023-02-28T05:25:23;-6.30;99.90
7496;DHT22;3789;47.064;15.482;2023-02-28T05:27:50;-6.50;99.90
7496;DHT22;3789;47.064;15.482;2023-02-28T05:30:18;-6.60;99.90
7496;DHT22;3789;47.064;15.482;2023-02-28T05:32:50;-6.60;99.90
7496;DHT22;3789;47.064;15.482;2023-02-28T05:35:17;-6.70;99.90
7496;DHT22;3789;47.064;15.482;2023-02-28T05:38:03;-6.70;99.90
7496;DHT22;3789;47.064;15.482;2023-02-28T05:40:31;-6.80;99.90
7496;DHT22;3789;47.064;15.482;2023-02-28T05:43:01;-6.80;99.90
7496;DHT22;3789;47.064;15.482;2023-02-28T05:45:43;-6.70;99.90
7496;DHT22;3789;47.064;15.482;2023-02-28T05:48:16;-6.80;99.90
7496;DHT22;3789;47.064;15.482;2023-02-28T05:51:14;-6.80;99.90
7496;DHT22;3789;47.064;15.482;2023-02-28T05:53:42;-6.50;99.90
7496;DHT22;3789;47.064;15.482;2023-02-28T05:56:13;-5.70;99.90
7496;DHT22;3789;47.064;15.482;2023-02-28T05:58:40;-4.90;99.90
7496;DHT22;3789;47.064;15.482;2023-02-28T06:01:31;-4.00;99.90
7496;DHT22;3789;47.064;15.482;2023-02-28T06:04:00;-3.20;99.90
7496;DHT22;3789;47.064;15.482;2023-02-28T06:06:28;-2.70;99.90
7496;DHT22;3789;47.064;15.482;2023-02-28T06:08:56;-2.40;99.90
7496;DHT22;3789;47.064;15.482;2023-02-28T06:11:24;-2.10;99.90
7496;DHT22;3789;47.064;15.482;2023-02-28T06:14:07;-1.90;99.90
7496;DHT22;3789;47.064;15.482;2023-02-28T06:16:38;-1.80;99.90
7496;DHT22;3789;47.064;15.482;2023-02-28T06:19:21;-1.80;99.90
7496;DHT22;3789;47.064;15.482;2023-02-28T06:21:56;-1.70;99.90
7496;DHT22;3789;47.064;15.482;2023-02-28T06:24:35;-1.60;99.90
7496;DHT22;3789;47.064;15.482;2023-02-28T06:27:03;-1.60;99.90
7496;DHT22;3789;47.064;15.482;2023-02-28T06:29:33;-1.50;99.90
7496;DHT22;3789;47.064;15.482;2023-02-28T06:32:01;-1.40;99.90
7496;DHT22;3789;47.064;15.482;2023-02-28T06:34:28;-1.40;99.90
7496;DHT22;3789;47.064;15.482;2023-02-28T06:36:55;-1.30;99.90
7496;DHT22;3789;47.064;15.482;2023-02-28T06:39:26;-1.30;99.90
7496;DHT22;3789;47.064;15.482;2023-02-28T06:42:24;-1.30;99.90
7496;DHT22;3789;47.064;15.482;2023-02-28T06:45:14;-1.30;99.90
7496;DHT22;3789;47.064;15.482;2023-02-28T06:47:47;-1.20;99.90
7496;DHT22;3789;47.064;15.482;2023-02-28T06:50:25;-1.20;99.90
7496;DHT22;3789;47.064;15.482;2023-02-28T06:55:54;-1.10;99.90
7496;DHT22;3789;47.064;15.482;2023-02-28T06:58:24;-1.10;99.90
7496;DHT22;3789;47.064;15.482;2023-02-28T07:00:52;-1.00;99.90
7496;DHT22;3789;47.064;15.482;2023-02-28T07:03:31;-0.80;99.90
7496;DHT22;3789;47.064;15.482;2023-02-28T07:06:00;-0.90;99.90
7496;DHT22;3789;47.064;15.482;2023-02-28T07:08:30;-0.90;99.90
7496;DHT22;3789;47.064;15.482;2023-02-28T07:10:58;-0.80;99.90
7496;DHT22;3789;47.064;15.482;2023-02-28T07:13:28;-0.80;99.90
7496;DHT22;3789;47.064;15.482;2023-02-28T07:15:59;-0.70;99.90
7496;DHT22;3789;47.064;15.482;2023-02-28T07:18:33;-0.60;99.90
7496;DHT22;3789;47.064;15.482;2023-02-28T07:21:13;-0.60;99.90
7496;DHT22;3789;47.064;15.482;2023-02-28T07:23:46;-0.60;99.90
7496;DHT22;3789;47.064;15.482;2023-02-28T07:26:18;-0.50;99.90
7496;DHT22;3789;47.064;15.482;2023-02-28T07:28:47;-0.60;99.90
7496;DHT22;3789;47.064;15.482;2023-02-28T07:31:27;-0.60;99.90
7496;DHT22;3789;47.064;15.482;2023-02-28T07:33:55;-0.40;99.90
7496;DHT22;3789;47.064;15.482;2023-02-28T07:36:23;-0.40;99.90
7496;DHT22;3789;47.064;15.482;2023-02-28T07:38:50;-0.50;99.90
7496;DHT22;3789;47.064;15.482;2023-02-28T07:41:19;-0.50;99.90
7496;DHT22;3789;47.064;15.482;2023-02-28T07:43:47;-0.40;99.90
7496;DHT22;3789;47.064;15.482;2023-02-28T07:46:16;-0.40;99.90
7496;DHT22;3789;47.064;15.482;2023-02-28T07:48:44;-0.20;99.90
7496;DHT22;3789;47.064;15.482;2023-02-28T07:51:12;-0.30;99.90
7496;DHT22;3789;47.064;15.482;2023-02-28T07:53:39;-0.40;99.90
7496;DHT22;3789;47.064;15.482;2023-02-28T07:56:07;-0.30;99.90
7496;DHT22;3789;47.064;15.482;2023-02-28T07:58:34;-0.30;99.90
7496;DHT22;3789;47.064;15.482;2023-02-28T08:01:06;-0.20;99.90
7496;DHT22;3789;47.064;15.482;2023-02-28T08:03:34;-0.20;99.90
7496;DHT22;3789;47.064;15.482;2023-02-28T08:06:07;-0.20;99.90
7496;DHT22;3789;47.064;15.482;2023-02-28T08:08:35;-0.20;99.90
7496;DHT22;3789;47.064;15.482;2023-02-28T08:11:03;-0.20;99.90
7496;DHT22;3789;47.064;15.482;2023-02-28T08:13:31;-0.30;99.90
7496;DHT22;3789;47.064;15.482;2023-02-28T08:16:01;-0.40;99.90
7496;DHT22;3789;47.064;15.482;2023-02-28T08:18:28;-0.40;99.90
7496;DHT22;3789;47.064;15.482;2023-02-28T08:20:55;-0.30;99.90
7496;DHT22;3789;47.064;15.482;2023-02-28T08:23:23;-0.10;99.90
7496;DHT22;3789;47.064;15.482;2023-02-28T08:25:55;-0.10;99.90
7496;DHT22;3789;47.064;15.482;2023-02-28T08:28:23;0.10;99.90
7496;DHT22;3789;47.064;15.482;2023-02-28T08:30:53;0.30;99.90
7496;DHT22;3789;47.064;15.482;2023-02-28T08:33:23;0.40;99.90
7496;DHT22;3789;47.064;15.482;2023-02-28T08:35:55;0.40;99.90
7496;DHT22;3789;47.064;15.482;2023-02-28T08:38:22;0.50;99.90
7496;DHT22;3789;47.064;15.482;2023-02-28T08:40:50;0.70;99.90
7496;DHT22;3789;47.064;15.482;2023-02-28T08:43:24;0.80;99.90
7496;DHT22;3789;47.064;15.482;2023-02-28T08:45:52;0.90;99.90
7496;DHT22;3789;47.064;15.482;2023-02-28T08:48:20;1.00;99.90
7496;DHT22;3789;47.064;15.482;2023-02-28T08:50:58;1.10;99.90
7496;DHT22;3789;47.064;15.482;2023-02-28T08:53:33;1.30;99.90
7496;DHT22;3789;47.064;15.482;2023-02-28T08:56:21;1.30;99.90
7496;DHT22;3789;47.064;15.482;2023-02-28T08:58:49;1.40;99.90
7496;DHT22;3789;47.064;15.482;2023-02-28T09:01:19;1.10;99.90
7496;DHT22;3789;47.064;15.482;2023-02-28T09:03:48;1.10;99.90
7496;DHT22;3789;47.064;15.482;2023-02-28T09:06:18;1.10;99.90
7496;DHT22;3789;47.064;15.482;2023-02-28T09:08:45;1.10;99.90
7496;DHT22;3789;47.064;15.482;2023-02-28T09:11:13;1.20;99.90
7496;DHT22;3789;47.064;15.482;2023-02-28T09:13:40;1.30;99.90
7496;DHT22;3789;47.064;15.482;2023-02-28T09:16:10;1.30;99.90
7496;DHT22;3789;47.064;15.482;2023-02-28T09:18:38;1.30;99.90
7496;DHT22;3789;47.064;15.482;2023-02-28T09:21:11;1.40;99.90
7496;DHT22;3789;47.064;15.482;2023-02-28T09:23:45;1.50;99.90
7496;DHT22;3789;47.064;15.482;2023-02-28T09:26:18;1.50;99.90
7496;DHT22;3789;47.064;15.482;2023-02-28T09:28:46;1.70;99.90
7496;DHT22;3789;47.064;15.482;2023-02-28T09:31:16;1.80;99.90
7496;DHT22;3789;47.064;15.482;2023-02-28T09:33:43;1.90;99.90
7496;DHT22;3789;47.064;15.482;2023-02-28T09:36:10;2.00;99.90
7496;DHT22;3789;47.064;15.482;2023-02-28T09:38:38;2.00;99.90
7496;DHT22;3789;47.064;15.482;2023-02-28T09:41:19;2.00;99.90
7496;DHT22;3789;47.064;15.482;2023-02-28T09:43:50;1.90;99.90
7496;DHT22;3789;47.064;15.482;2023-02-28T09:46:40;1.80;99.90
7496;DHT22;3789;47.064;15.482;2023-02-28T09:49:17;1.80;99.90
7496;DHT22;3789;47.064;15.482;2023-02-28T09:51:57;1.80;99.90
7496;DHT22;3789;47.064;15.482;2023-02-28T09:54:29;1.90;99.90
7496;DHT22;3789;47.064;15.482;2023-02-28T10:00:13;1.80;99.90
7496;DHT22;3789;47.064;15.482;2023-02-28T10:05:39;2.10;99.90
7496;DHT22;3789;47.064;15.482;2023-02-28T10:08:28;2.20;99.90
7496;DHT22;3789;47.064;15.482;2023-02-28T10:11:07;2.30;99.90
7496;DHT22;3789;47.064;15.482;2023-02-28T10:13:59;2.40;99.90
7496;DHT22;3789;47.064;15.482;2023-02-28T10:16:50;2.70;99.90
7496;DHT22;3789;47.064;15.482;2023-02-28T10:19:23;2.90;99.90
7496;DHT22;3789;47.064;15.482;2023-02-28T10:24:50;3.40;99.90
7496;DHT22;3789;47.064;15.482;2023-02-28T10:27:21;3.60;99.90
7496;DHT22;3789;47.064;15.482;2023-02-28T10:30:00;3.50;99.90
7496;DHT22;3789;47.064;15.482;2023-02-28T10:32:30;3.50;99.90
7496;DHT22;3789;47.064;15.482;2023-02-28T10:37:42;3.60;99.90
7496;DHT22;3789;47.064;15.482;2023-02-28T10:43:11;3.10;99.90
7496;DHT22;3789;47.064;15.482;2023-02-28T10:45:58;3.00;99.90
7496;DHT22;3789;47.064;15.482;2023-02-28T10:48:50;3.20;99.90
7496;DHT22;3789;47.064;15.482;2023-02-28T10:51:24;3.50;99.90
7496;DHT22;3789;47.064;15.482;2023-02-28T10:53:52;3.70;99.90
7496;DHT22;3789;47.064;15.482;2023-02-28T10:56:29;3.80;99.90
7496;DHT22;3789;47.064;15.482;2023-02-28T10:59:00;3.80;99.90
7496;DHT22;3789;47.064;15.482;2023-02-28T11:04:32;0.50;97.50
7496;DHT22;3789;47.064;15.482;2023-02-28T11:07:22;-0.40;99.90
7496;DHT22;3789;47.064;15.482;2023-02-28T11:09:57;-0.10;99.90
7496;DHT22;3789;47.064;15.482;2023-02-28T11:12:37;-1.30;99.00
7496;DHT22;3789;47.064;15.482;2023-02-28T11:18:24;-2.60;99.90
7496;DHT22;3789;47.064;15.482;2023-02-28T11:20:57;-2.50;99.90
7496;DHT22;3789;47.064;15.482;2023-02-28T11:23:27;-2.10;99.90
7496;DHT22;3789;47.064;15.482;2023-02-28T11:25:58;-2.40;99.90
7496;DHT22;3789;47.064;15.482;2023-02-28T11:28:34;-2.60;99.90
7496;DHT22;3789;47.064;15.482;2023-02-28T11:33:48;-1.70;99.90
7496;DHT22;3789;47.064;15.482;2023-02-28T11:36:24;-2.10;99.90
7496;DHT22;3789;47.064;15.482;2023-02-28T11:39:01;-2.70;99.90
7496;DHT22;3789;47.064;15.482;2023-02-28T11:55:58;-1.60;99.90
7496;DHT22;3789;47.064;15.482;2023-02-28T12:28:14;0.30;99.90
7496;DHT22;3789;47.064;15.482;2023-02-28T12:31:09;1.50;99.90
7496;DHT22;3789;47.064;15.482;2023-02-28T12:33:45;2.20;99.90
7496;DHT22;3789;47.064;15.482;2023-02-28T12:36:17;2.80;99.90
7496;DHT22;3789;47.064;15.482;2023-02-28T12:39:08;3.20;99.90
7496;DHT22;3789;47.064;15.482;2023-02-28T12:41:55;3.20;99.90
7496;DHT22;3789;47.064;15.482;2023-02-28T12:44:32;1.90;99.90
7496;DHT22;3789;47.064;15.482;2023-02-28T12:47:04;0.60;99.90
7496;DHT22;3789;47.064;15.482;2023-02-28T12:49:37;-0.20;99.90
7496;DHT22;3789;47.064;15.482;2023-02-28T12:52:06;-0.60;99.90
7496;DHT22;3789;47.064;15.482;2023-02-28T12:54:49;-0.80;99.90
7496;DHT22;3789;47.064;15.482;2023-02-28T12:57:42;-0.90;99.90
7496;DHT22;3789;47.064;15.482;2023-02-28T13:00:18;-0.90;99.90
7496;DHT22;3789;47.064;15.482;2023-02-28T13:03:00;-0.20;99.90
7496;DHT22;3789;47.064;15.482;2023-02-28T13:10:43;2.50;99.90
7496;DHT22;3789;47.064;15.482;2023-02-28T13:13:23;3.10;99.90
7496;DHT22;3789;47.064;15.482;2023-02-28T13:16:06;3.50;99.90
7496;DHT22;3789;47.064;15.482;2023-02-28T13:18:44;3.90;99.90
7496;DHT22;3789;47.064;15.482;2023-02-28T13:21:24;4.00;99.90
7496;DHT22;3789;47.064;15.482;2023-02-28T13:39:53;5.10;99.90
7496;DHT22;3789;47.064;15.482;2023-02-28T13:42:36;5.20;99.90
7496;DHT22;3789;47.064;15.482;2023-02-28T13:47:52;5.30;99.90
7496;DHT22;3789;47.064;15.482;2023-02-28T13:56:05;5.40;99.90
7496;DHT22;3789;47.064;15.482;2023-02-28T14:01:47;5.30;99.90
7496;DHT22;3789;47.064;15.482;2023-02-28T14:04:56;5.30;99.90
7496;DHT22;3789;47.064;15.482;2023-02-28T14:07:36;5.30;99.90
7496;DHT22;3789;47.064;15.482;2023-02-28T14:10:07;5.20;99.90
7496;DHT22;3789;47.064;15.482;2023-02-28T14:12:58;5.20;99.90
7496;DHT22;3789;47.064;15.482;2023-02-28T14:18:32;5.20;99.90
7496;DHT22;3789;47.064;15.482;2023-02-28T14:21:38;5.20;99.90
7496;DHT22;3789;47.064;15.482;2023-02-28T14:27:15;5.40;99.90
7496;DHT22;3789;47.064;15.482;2023-02-28T14:29:57;5.50;99.90
7496;DHT22;3789;47.064;15.482;2023-02-28T14:32:51;5.70;99.90
7496;DHT22;3789;47.064;15.482;2023-02-28T14:38:24;5.50;99.90
7496;DHT22;3789;47.064;15.482;2023-02-28T14:40:54;5.60;99.90
7496;DHT22;3789;47.064;15.482;2023-02-28T14:43:25;5.60;99.90
7496;DHT22;3789;47.064;15.482;2023-02-28T14:45:57;5.60;99.90
7496;DHT22;3789;47.064;15.482;2023-02-28T14:48:27;5.60;99.90
7496;DHT22;3789;47.064;15.482;2023-02-28T14:51:00;5.50;99.90
7496;DHT22;3789;47.064;15.482;2023-02-28T14:53:29;5.50;99.90
7496;DHT22;3789;47.064;15.482;2023-02-28T14:55:57;5.50;99.90
7496;DHT22;3789;47.064;15.482;2023-02-28T14:58:30;5.40;99.90
7496;DHT22;3789;47.064;15.482;2023-02-28T15:01:02;5.40;99.90
7496;DHT22;3789;47.064;15.482;2023-02-28T15:03:38;5.30;99.90
7496;DHT22;3789;47.064;15.482;2023-02-28T15:06:14;5.20;99.90
7496;DHT22;3789;47.064;15.482;2023-02-28T15:08:44;5.10;99.90
7496;DHT22;3789;47.064;15.482;2023-02-28T15:11:17;5.10;99.90
7496;DHT22;3789;47.064;15.482;2023-02-28T15:13:54;5.10;99.90
7496;DHT22;3789;47.064;15.482;2023-02-28T15:16:37;5.10;99.90
7496;DHT22;3789;47.064;15.482;2023-02-28T15:19:26;5.10;99.90
7496;DHT22;3789;47.064;15.482;2023-02-28T15:22:06;5.10;99.90
7496;DHT22;3789;47.064;15.482;2023-02-28T15:24:42;5.00;99.90
7496;DHT22;3789;47.064;15.482;2023-02-28T15:27:20;5.00;99.90
7496;DHT22;3789;47.064;15.482;2023-02-28T15:29:59;4.90;99.90
7496;DHT22;3789;47.064;15.482;2023-02-28T15:32:33;4.80;99.90
7496;DHT22;3789;47.064;15.482;2023-02-28T15:35:27;4.90;99.90
7496;DHT22;3789;47.064;15.482;2023-02-28T15:37:57;4.90;99.90
7496;DHT22;3789;47.064;15.482;2023-02-28T15:43:07;4.80;99.90
7496;DHT22;3789;47.064;15.482;2023-02-28T15:45:54;4.80;99.90
7496;DHT22;3789;47.064;15.482;2023-02-28T15:48:32;4.70;99.90
7496;DHT22;3789;47.064;15.482;2023-02-28T15:53:36;4.70;99.90
7496;DHT22;3789;47.064;15.482;2023-02-28T15:56:07;4.70;99.90
7496;DHT22;3789;47.064;15.482;2023-02-28T15:58:42;4.70;99.90
7496;DHT22;3789;47.064;15.482;2023-02-28T16:01:25;4.60;99.90
7496;DHT22;3789;47.064;15.482;2023-02-28T16:03:55;4.60;99.90
7496;DHT22;3789;47.064;15.482;2023-02-28T16:06:34;4.50;99.90
7496;DHT22;3789;47.064;15.482;2023-02-28T16:09:04;4.40;99.90
7496;DHT22;3789;47.064;15.482;2023-02-28T16:11:41;4.30;99.90
7496;DHT22;3789;47.064;15.482;2023-02-28T16:14:17;4.30;99.90
7496;DHT22;3789;47.064;15.482;2023-02-28T16:16:49;4.20;99.90
7496;DHT22;3789;47.064;15.482;2023-02-28T16:19:17;4.20;99.90
7496;DHT22;3789;47.064;15.482;2023-02-28T16:21:45;4.10;99.90
7496;DHT22;3789;47.064;15.482;2023-02-28T16:24:13;4.00;99.90
7496;DHT22;3789;47.064;15.482;2023-02-28T16:26:42;4.00;99.90
7496;DHT22;3789;47.064;15.482;2023-02-28T16:29:15;4.00;99.90
7496;DHT22;3789;47.064;15.482;2023-02-28T16:31:47;3.90;99.90
7496;DHT22;3789;47.064;15.482;2023-02-28T16:34:15;3.90;99.90
7496;DHT22;3789;47.064;15.482;2023-02-28T16:36:47;3.80;99.90
7496;DHT22;3789;47.064;15.482;2023-02-28T16:39:15;3.70;99.90
7496;DHT22;3789;47.064;15.482;2023-02-28T16:41:44;3.70;99.90
7496;DHT22;3789;47.064;15.482;2023-02-28T16:44:20;3.70;99.90
7496;DHT22;3789;47.064;15.482;2023-02-28T16:47:08;3.60;99.90
7496;DHT22;3789;47.064;15.482;2023-02-28T16:49:40;3.60;99.90
7496;DHT22;3789;47.064;15.482;2023-02-28T16:52:10;3.50;99.90
7496;DHT22;3789;47.064;15.482;2023-02-28T16:54:40;3.50;99.90
7496;DHT22;3789;47.064;15.482;2023-02-28T16:57:26;3.50;99.90
7496;DHT22;3789;47.064;15.482;2023-02-28T16:59:53;3.50;99.90
7496;DHT22;3789;47.064;15.482;2023-02-28T17:02:21;3.50;99.90
7496;DHT22;3789;47.064;15.482;2023-02-28T17:04:49;3.40;99.90
7496;DHT22;3789;47.064;15.482;2023-02-28T17:07:16;3.40;99.90
7496;DHT22;3789;47.064;15.482;2023-02-28T17:09:45;3.40;99.90
7496;DHT22;3789;47.064;15.482;2023-02-28T17:12:13;3.40;99.90
7496;DHT22;3789;47.064;15.482;2023-02-28T17:14:41;3.30;99.90
7496;DHT22;3789;47.064;15.482;2023-02-28T17:17:15;3.20;99.90
7496;DHT22;3789;47.064;15.482;2023-02-28T17:19:44;3.20;99.90
7496;DHT22;3789;47.064;15.482;2023-02-28T17:22:11;3.10;99.90
7496;DHT22;3789;47.064;15.482;2023-02-28T17:24:40;3.10;99.90
7496;DHT22;3789;47.064;15.482;2023-02-28T17:27:11;3.00;99.90
7496;DHT22;3789;47.064;15.482;2023-02-28T17:29:39;3.10;99.90
7496;DHT22;3789;47.064;15.482;2023-02-28T17:32:06;3.00;99.90
7496;DHT22;3789;47.064;15.482;2023-02-28T17:34:43;3.00;99.90
7496;DHT22;3789;47.064;15.482;2023-02-28T17:37:13;3.00;99.90
7496;DHT22;3789;47.064;15.482;2023-02-28T17:39:40;3.00;99.90
7496;DHT22;3789;47.064;15.482;2023-02-28T17:42:07;3.00;99.90
7496;DHT22;3789;47.064;15.482;2023-02-28T17:44:35;3.00;99.90
7496;DHT22;3789;47.064;15.482;2023-02-28T17:47:02;3.00;99.90
7496;DHT22;3789;47.064;15.482;2023-02-28T17:49:29;3.00;99.90
7496;DHT22;3789;47.064;15.482;2023-02-28T17:51:56;3.00;99.90
7496;DHT22;3789;47.064;15.482;2023-02-28T17:54:24;3.00;99.90
7496;DHT22;3789;47.064;15.482;2023-02-28T17:56:51;3.00;99.90
7496;DHT22;3789;47.064;15.482;2023-02-28T17:59:19;2.90;99.90
7496;DHT22;3789;47.064;15.482;2023-02-28T18:01:46;3.00;99.90
7496;DHT22;3789;47.064;15.482;2023-02-28T18:04:13;2.90;99.90
7496;DHT22;3789;47.064;15.482;2023-02-28T18:06:43;3.00;99.90
7496;DHT22;3789;47.064;15.482;2023-02-28T18:09:17;3.00;99.90
7496;DHT22;3789;47.064;15.482;2023-02-28T18:11:45;3.00;99.90
7496;DHT22;3789;47.064;15.482;2023-02-28T18:14:12;3.00;99.90
7496;DHT22;3789;47.064;15.482;2023-02-28T18:16:41;2.90;99.90
7496;DHT22;3789;47.064;15.482;2023-02-28T18:19:09;2.90;99.90
7496;DHT22;3789;47.064;15.482;2023-02-28T18:21:51;2.90;99.90
7496;DHT22;3789;47.064;15.482;2023-02-28T18:24:21;2.80;99.90
7496;DHT22;3789;47.064;15.482;2023-02-28T18:26:49;2.80;99.90
7496;DHT22;3789;47.064;15.482;2023-02-28T18:29:23;2.80;99.90
7496;DHT22;3789;47.064;15.482;2023-02-28T18:31:52;2.80;99.90
7496;DHT22;3789;47.064;15.482;2023-02-28T18:34:22;2.80;99.90
7496;DHT22;3789;47.064;15.482;2023-02-28T18:36:51;2.80;99.90
7496;DHT22;3789;47.064;15.482;2023-02-28T18:39:19;2.80;99.90
7496;DHT22;3789;47.064;15.482;2023-02-28T18:41:47;2.80;99.90
7496;DHT22;3789;47.064;15.482;2023-02-28T18:44:14;2.80;99.90
7496;DHT22;3789;47.064;15.482;2023-02-28T18:46:48;2.30;99.90
7496;DHT22;3789;47.064;15.482;2023-02-28T18:49:17;0.40;99.80
7496;DHT22;3789;47.064;15.482;2023-02-28T18:51:46;-1.30;99.90
7496;DHT22;3789;47.064;15.482;2023-02-28T18:54:15;-2.50;99.90
7496;DHT22;3789;47.064;15.482;2023-02-28T18:56:42;-3.30;99.90
7496;DHT22;3789;47.064;15.482;2023-02-28T18:59:10;-3.80;99.90
7496;DHT22;3789;47.064;15.482;2023-02-28T19:01:38;-4.20;99.90
7496;DHT22;3789;47.064;15.482;2023-02-28T19:04:06;-4.50;99.90
7496;DHT22;3789;47.064;15.482;2023-02-28T19:06:34;-4.70;99.90
7496;DHT22;3789;47.064;15.482;2023-02-28T19:09:04;-4.90;99.90